sensor_id;sensor_type;location;lat;lon;timestamp;P1;durP1;ratioP1;P2;durP2;ratioP2
44137;SDS011;29800;55.942;37.314;2023-08-06T00:00:55;23.42;;;12.15;;
44137;SDS011;29800;55.942;37.314;2023-08-06T00:03:21;21.65;;;12.02;;
44137;SDS011;29800;55.942;37.314;2023-08-06T00:05:48;21.65;;;11.77;;
44137;SDS011;29800;55.942;37.314;2023-08-06T00:08:14;21.38;;;12.25;;
44137;SDS011;29800;55.942;37.314;2023-08-06T00:10:40;21.02;;;12.13;;
44137;SDS011;29800;55.942;37.314;2023-08-06T00:13:07;19.33;;;11.77;;
44137;SDS011;29800;55.942;37.314;2023-08-06T00:15:33;18.75;;;11.80;;
44137;SDS011;29800;55.942;37.314;2023-08-06T00:18:00;23.88;;;11.90;;
44137;SDS011;29800;55.942;37.314;2023-08-06T00:20:26;20.15;;;12.13;;
44137;SDS011;29800;55.942;37.314;2023-08-06T00:22:52;20.27;;;11.48;;
44137;SDS011;29800;55.942;37.314;2023-08-06T00:25:18;20.15;;;12.60;;
44137;SDS011;29800;55.942;37.314;2023-08-06T00:27:45;24.27;;;12.52;;
44137;SDS011;29800;55.942;37.314;2023-08-06T00:30:11;21.55;;;12.35;;
44137;SDS011;29800;55.942;37.314;2023-08-06T00:32:38;28.95;;;12.25;;
44137;SDS011;29800;55.942;37.314;2023-08-06T00:35:04;26.60;;;12.25;;
44137;SDS011;29800;55.942;37.314;2023-08-06T00:37:31;25.90;;;12.50;;
44137;SDS011;29800;55.942;37.314;2023-08-06T00:39:58;24.73;;;12.40;;
44137;SDS011;29800;55.942;37.314;2023-08-06T00:42:25;23.60;;;12.13;;
44137;SDS011;29800;55.942;37.314;2023-08-06T00:44:52;25.80;;;12.75;;
44137;SDS011;29800;55.942;37.314;2023-08-06T00:47:18;23.40;;;12.40;;
44137;SDS011;29800;55.942;37.314;2023-08-06T00:49:45;19.95;;;11.77;;
44137;SDS011;29800;55.942;37.314;2023-08-06T00:52:11;21.38;;;12.55;;
44137;SDS011;29800;55.942;37.314;2023-08-06T00:54:39;22.63;;;11.90;;
44137;SDS011;29800;55.942;37.314;2023-08-06T00:57:07;21.17;;;12.77;;
44137;SDS011;29800;55.942;37.314;2023-08-06T00:59:34;20.52;;;12.25;;
44137;SDS011;29800;55.942;37.314;2023-08-06T01:02:01;20.40;;;12.48;;
44137;SDS011;29800;55.942;37.314;2023-08-06T01:04:28;22.52;;;12.15;;
44137;SDS011;29800;55.942;37.314;2023-08-06T01:09:45;22.48;;;12.45;;
44137;SDS011;29800;55.942;37.314;2023-08-06T01:17:30;20.88;;;12.45;;
44137;SDS011;29800;55.942;37.314;2023-08-06T01:19:56;21.05;;;12.45;;
44137;SDS011;29800;55.942;37.314;2023-08-06T01:22:23;23.80;;;12.30;;
44137;SDS011;29800;55.942;37.314;2023-08-06T01:24:49;21.92;;;12.48;;
44137;SDS011;29800;55.942;37.314;2023-08-06T01:27:33;22.38;;;12.50;;
44137;SDS011;29800;55.942;37.314;2023-08-06T01:30:22;21.88;;;13.15;;
44137;SDS011;29800;55.942;37.314;2023-08-06T01:32:58;20.05;;;11.60;;
44137;SDS011;29800;55.942;37.314;2023-08-06T01:35:27;19.98;;;12.05;;
44137;SDS011;29800;55.942;37.314;2023-08-06T01:37:59;22.00;;;12.77;;
44137;SDS011;29800;55.942;37.314;2023-08-06T01:40:27;20.25;;;12.52;;
44137;SDS011;29800;55.942;37.314;2023-08-06T01:42:55;22.30;;;12.35;;
44137;SDS011;29800;55.942;37.314;2023-08-06T01:45:21;22.02;;;12.63;;
44137;SDS011;29800;55.942;37.314;2023-08-06T01:47:49;23.20;;;12.70;;
44137;SDS011;29800;55.942;37.314;2023-08-06T01:50:16;17.98;;;12.05;;
44137;SDS011;29800;55.942;37.314;2023-08-06T01:52:42;24.65;;;12.55;;
44137;SDS011;29800;55.942;37.314;2023-08-06T01:55:08;25.40;;;12.43;;
44137;SDS011;29800;55.942;37.314;2023-08-06T01:57:34;18.90;;;12.40;;
44137;SDS011;29800;55.942;37.314;2023-08-06T02:00:01;24.45;;;12.43;;
44137;SDS011;29800;55.942;37.314;2023-08-06T02:02:30;25.90;;;12.40;;
44137;SDS011;29800;55.942;37.314;2023-08-06T02:04:57;19.85;;;11.93;;
44137;SDS011;29800;55.942;37.314;2023-08-06T02:07:23;21.30;;;11.95;;
44137;SDS011;29800;55.942;37.314;2023-08-06T02:09:50;21.10;;;12.07;;
44137;SDS011;29800;55.942;37.314;2023-08-06T02:12:16;19.02;;;11.90;;
44137;SDS011;29800;55.942;37.314;2023-08-06T02:14:42;21.30;;;12.05;;
44137;SDS011;29800;55.942;37.314;2023-08-06T02:17:08;20.98;;;12.90;;
44137;SDS011;29800;55.942;37.314;2023-08-06T02:19:35;23.52;;;13.00;;
44137;SDS011;29800;55.942;37.314;2023-08-06T02:22:01;19.15;;;11.85;;
44137;SDS011;29800;55.942;37.314;2023-08-06T02:24:28;19.10;;;11.77;;
44137;SDS011;29800;55.942;37.314;2023-08-06T02:26:54;22.35;;;12.10;;
44137;SDS011;29800;55.942;37.314;2023-08-06T02:29:22;16.08;;;11.43;;
44137;SDS011;29800;55.942;37.314;2023-08-06T02:31:48;17.45;;;11.50;;
44137;SDS011;29800;55.942;37.314;2023-08-06T02:34:14;16.98;;;11.73;;
44137;SDS011;29800;55.942;37.314;2023-08-06T02:36:40;20.67;;;11.63;;
44137;SDS011;29800;55.942;37.314;2023-08-06T02:39:07;17.83;;;11.60;;
44137;SDS011;29800;55.942;37.314;2023-08-06T02:41:34;20.90;;;12.05;;
44137;SDS011;29800;55.942;37.314;2023-08-06T02:44:01;18.60;;;11.40;;
44137;SDS011;29800;55.942;37.314;2023-08-06T02:46:28;20.02;;;11.82;;
44137;SDS011;29800;55.942;37.314;2023-08-06T02:48:54;21.35;;;11.95;;
44137;SDS011;29800;55.942;37.314;2023-08-06T02:51:21;22.73;;;12.10;;
44137;SDS011;29800;55.942;37.314;2023-08-06T02:53:48;20.33;;;11.90;;
44137;SDS011;29800;55.942;37.314;2023-08-06T02:56:16;21.55;;;12.38;;
44137;SDS011;29800;55.942;37.314;2023-08-06T02:58:55;18.85;;;11.82;;
44137;SDS011;29800;55.942;37.314;2023-08-06T03:01:36;18.08;;;11.18;;
44137;SDS011;29800;55.942;37.314;2023-08-06T03:04:11;19.02;;;11.52;;
44137;SDS011;29800;55.942;37.314;2023-08-06T03:06:42;22.13;;;12.63;;
44137;SDS011;29800;55.942;37.314;2023-08-06T03:09:09;22.38;;;11.98;;
44137;SDS011;29800;55.942;37.314;2023-08-06T03:11:35;19.58;;;12.18;;
44137;SDS011;29800;55.942;37.314;2023-08-06T03:14:07;19.13;;;10.80;;
44137;SDS011;29800;55.942;37.314;2023-08-06T03:16:34;16.42;;;10.63;;
44137;SDS011;29800;55.942;37.314;2023-08-06T03:19:00;18.40;;;11.23;;
44137;SDS011;29800;55.942;37.314;2023-08-06T03:21:27;16.25;;;10.63;;
44137;SDS011;29800;55.942;37.314;2023-08-06T03:23:54;20.73;;;11.00;;
44137;SDS011;29800;55.942;37.314;2023-08-06T03:26:23;17.35;;;10.30;;
44137;SDS011;29800;55.942;37.314;2023-08-06T03:28:51;22.08;;;11.50;;
44137;SDS011;29800;55.942;37.314;2023-08-06T03:31:17;22.35;;;11.55;;
44137;SDS011;29800;55.942;37.314;2023-08-06T03:33:45;18.75;;;10.68;;
44137;SDS011;29800;55.942;37.314;2023-08-06T03:36:15;22.30;;;11.80;;
44137;SDS011;29800;55.942;37.314;2023-08-06T03:38:42;21.00;;;11.00;;
44137;SDS011;29800;55.942;37.314;2023-08-06T03:41:11;19.77;;;11.68;;
44137;SDS011;29800;55.942;37.314;2023-08-06T03:43:37;20.25;;;11.02;;
44137;SDS011;29800;55.942;37.314;2023-08-06T03:46:08;20.52;;;11.35;;
44137;SDS011;29800;55.942;37.314;2023-08-06T03:48:34;22.85;;;11.30;;
44137;SDS011;29800;55.942;37.314;2023-08-06T03:51:00;25.05;;;11.35;;
44137;SDS011;29800;55.942;37.314;2023-08-06T03:53:28;23.85;;;11.02;;
44137;SDS011;29800;55.942;37.314;2023-08-06T03:55:54;18.63;;;10.98;;
44137;SDS011;29800;55.942;37.314;2023-08-06T03:58:25;14.32;;;9.32;;
44137;SDS011;29800;55.942;37.314;2023-08-06T04:00:59;20.17;;;10.18;;
44137;SDS011;29800;55.942;37.314;2023-08-06T04:03:37;18.17;;;10.50;;
44137;SDS011;29800;55.942;37.314;2023-08-06T04:06:03;15.70;;;10.32;;
44137;SDS011;29800;55.942;37.314;2023-08-06T04:08:30;15.70;;;9.00;;
44137;SDS011;29800;55.942;37.314;2023-08-06T04:10:57;16.75;;;9.75;;
44137;SDS011;29800;55.942;37.314;2023-08-06T04:13:24;18.85;;;10.65;;
44137;SDS011;29800;55.942;37.314;2023-08-06T04:15:50;20.95;;;10.55;;
44137;SDS011;29800;55.942;37.314;2023-08-06T04:18:16;20.15;;;9.93;;
44137;SDS011;29800;55.942;37.314;2023-08-06T04:20:43;18.10;;;9.57;;
44137;SDS011;29800;55.942;37.314;2023-08-06T04:23:10;14.25;;;9.52;;
44137;SDS011;29800;55.942;37.314;2023-08-06T04:25:37;17.77;;;9.25;;
44137;SDS011;29800;55.942;37.314;2023-08-06T04:28:05;19.58;;;9.55;;
44137;SDS011;29800;55.942;37.314;2023-08-06T04:30:32;16.40;;;9.48;;
44137;SDS011;29800;55.942;37.314;2023-08-06T04:33:00;14.73;;;9.07;;
44137;SDS011;29800;55.942;37.314;2023-08-06T04:35:27;20.77;;;9.32;;
44137;SDS011;29800;55.942;37.314;2023-08-06T04:37:53;16.77;;;9.32;;
44137;SDS011;29800;55.942;37.314;2023-08-06T04:40:19;21.27;;;10.10;;
44137;SDS011;29800;55.942;37.314;2023-08-06T04:42:46;16.10;;;9.20;;
44137;SDS011;29800;55.942;37.314;2023-08-06T04:45:12;21.45;;;9.05;;
44137;SDS011;29800;55.942;37.314;2023-08-06T04:47:38;18.95;;;10.13;;
44137;SDS011;29800;55.942;37.314;2023-08-06T04:50:05;18.70;;;9.32;;
44137;SDS011;29800;55.942;37.314;2023-08-06T04:52:31;18.60;;;9.32;;
44137;SDS011;29800;55.942;37.314;2023-08-06T04:54:58;18.23;;;8.75;;
44137;SDS011;29800;55.942;37.314;2023-08-06T04:57:24;14.50;;;8.88;;
44137;SDS011;29800;55.942;37.314;2023-08-06T04:59:50;15.57;;;8.57;;
44137;SDS011;29800;55.942;37.314;2023-08-06T05:02:17;17.85;;;8.63;;
44137;SDS011;29800;55.942;37.314;2023-08-06T05:04:43;14.82;;;7.53;;
44137;SDS011;29800;55.942;37.314;2023-08-06T05:07:10;16.77;;;7.95;;
44137;SDS011;29800;55.942;37.314;2023-08-06T05:09:36;20.77;;;8.15;;
44137;SDS011;29800;55.942;37.314;2023-08-06T05:12:03;14.52;;;8.32;;
44137;SDS011;29800;55.942;37.314;2023-08-06T05:14:30;13.77;;;8.20;;
44137;SDS011;29800;55.942;37.314;2023-08-06T05:16:56;12.63;;;7.63;;
44137;SDS011;29800;55.942;37.314;2023-08-06T05:19:22;15.88;;;7.53;;
44137;SDS011;29800;55.942;37.314;2023-08-06T05:21:49;12.02;;;7.15;;
44137;SDS011;29800;55.942;37.314;2023-08-06T05:24:15;12.07;;;6.65;;
44137;SDS011;29800;55.942;37.314;2023-08-06T05:26:41;13.77;;;7.00;;
44137;SDS011;29800;55.942;37.314;2023-08-06T05:29:08;13.15;;;6.10;;
44137;SDS011;29800;55.942;37.314;2023-08-06T05:31:34;10.43;;;6.25;;
44137;SDS011;29800;55.942;37.314;2023-08-06T05:34:00;11.80;;;7.00;;
44137;SDS011;29800;55.942;37.314;2023-08-06T05:36:27;9.73;;;5.55;;
44137;SDS011;29800;55.942;37.314;2023-08-06T05:38:53;13.70;;;6.50;;
44137;SDS011;29800;55.942;37.314;2023-08-06T05:41:20;13.00;;;6.65;;
44137;SDS011;29800;55.942;37.314;2023-08-06T05:43:46;11.70;;;6.07;;
44137;SDS011;29800;55.942;37.314;2023-08-06T05:46:12;13.52;;;6.22;;
44137;SDS011;29800;55.942;37.314;2023-08-06T05:48:39;9.77;;;5.20;;
44137;SDS011;29800;55.942;37.314;2023-08-06T05:51:05;12.15;;;6.15;;
44137;SDS011;29800;55.942;37.314;2023-08-06T05:53:32;10.15;;;5.30;;
44137;SDS011;29800;55.942;37.314;2023-08-06T05:55:58;10.57;;;5.60;;
44137;SDS011;29800;55.942;37.314;2023-08-06T05:58:24;8.95;;;5.55;;
44137;SDS011;29800;55.942;37.314;2023-08-06T06:00:54;11.15;;;5.43;;
44137;SDS011;29800;55.942;37.314;2023-08-06T06:03:20;10.82;;;4.47;;
44137;SDS011;29800;55.942;37.314;2023-08-06T06:05:46;8.90;;;4.95;;
44137;SDS011;29800;55.942;37.314;2023-08-06T06:08:13;10.88;;;5.55;;
44137;SDS011;29800;55.942;37.314;2023-08-06T06:10:39;7.55;;;4.60;;
44137;SDS011;29800;55.942;37.314;2023-08-06T06:13:05;9.38;;;4.75;;
44137;SDS011;29800;55.942;37.314;2023-08-06T06:15:31;10.60;;;4.95;;
44137;SDS011;29800;55.942;37.314;2023-08-06T06:17:58;9.90;;;4.85;;
44137;SDS011;29800;55.942;37.314;2023-08-06T06:20:24;9.85;;;4.78;;
44137;SDS011;29800;55.942;37.314;2023-08-06T06:22:51;6.55;;;4.53;;
44137;SDS011;29800;55.942;37.314;2023-08-06T06:25:17;10.38;;;4.70;;
44137;SDS011;29800;55.942;37.314;2023-08-06T06:27:44;10.55;;;4.82;;
44137;SDS011;29800;55.942;37.314;2023-08-06T06:30:10;7.43;;;4.40;;
44137;SDS011;29800;55.942;37.314;2023-08-06T06:32:38;9.90;;;4.50;;
44137;SDS011;29800;55.942;37.314;2023-08-06T06:35:06;8.57;;;4.50;;
44137;SDS011;29800;55.942;37.314;2023-08-06T06:37:33;6.57;;;4.80;;
44137;SDS011;29800;55.942;37.314;2023-08-06T06:39:59;6.78;;;4.57;;
44137;SDS011;29800;55.942;37.314;2023-08-06T06:42:25;7.25;;;4.18;;
44137;SDS011;29800;55.942;37.314;2023-08-06T06:44:58;8.82;;;3.60;;
44137;SDS011;29800;55.942;37.314;2023-08-06T06:47:24;5.35;;;3.25;;
44137;SDS011;29800;55.942;37.314;2023-08-06T06:49:51;7.75;;;3.92;;
44137;SDS011;29800;55.942;37.314;2023-08-06T06:52:17;8.88;;;4.10;;
44137;SDS011;29800;55.942;37.314;2023-08-06T06:54:43;11.15;;;4.10;;
44137;SDS011;29800;55.942;37.314;2023-08-06T06:57:10;6.93;;;3.53;;
44137;SDS011;29800;55.942;37.314;2023-08-06T06:59:36;7.20;;;3.53;;
44137;SDS011;29800;55.942;37.314;2023-08-06T07:02:04;6.90;;;3.10;;
44137;SDS011;29800;55.942;37.314;2023-08-06T07:04:30;7.68;;;3.20;;
44137;SDS011;29800;55.942;37.314;2023-08-06T07:06:56;6.20;;;3.40;;
44137;SDS011;29800;55.942;37.314;2023-08-06T07:09:22;7.05;;;3.40;;
44137;SDS011;29800;55.942;37.314;2023-08-06T07:11:49;7.63;;;3.10;;
44137;SDS011;29800;55.942;37.314;2023-08-06T07:14:15;7.22;;;3.63;;
44137;SDS011;29800;55.942;37.314;2023-08-06T07:16:42;6.60;;;3.03;;
44137;SDS011;29800;55.942;37.314;2023-08-06T07:19:08;5.20;;;3.05;;
44137;SDS011;29800;55.942;37.314;2023-08-06T07:21:34;6.68;;;4.05;;
44137;SDS011;29800;55.942;37.314;2023-08-06T07:24:01;5.95;;;3.60;;
44137;SDS011;29800;55.942;37.314;2023-08-06T07:26:27;6.72;;;3.40;;
44137;SDS011;29800;55.942;37.314;2023-08-06T07:28:53;5.15;;;3.20;;
44137;SDS011;29800;55.942;37.314;2023-08-06T07:31:20;5.95;;;3.47;;
44137;SDS011;29800;55.942;37.314;2023-08-06T07:33:46;4.57;;;3.30;;
44137;SDS011;29800;55.942;37.314;2023-08-06T07:36:13;7.75;;;3.92;;
44137;SDS011;29800;55.942;37.314;2023-08-06T07:38:40;7.15;;;3.50;;
44137;SDS011;29800;55.942;37.314;2023-08-06T07:41:07;6.10;;;3.88;;
44137;SDS011;29800;55.942;37.314;2023-08-06T07:43:34;7.93;;;3.55;;
44137;SDS011;29800;55.942;37.314;2023-08-06T07:46:01;6.07;;;3.30;;
44137;SDS011;29800;55.942;37.314;2023-08-06T07:48:28;10.70;;;3.58;;
44137;SDS011;29800;55.942;37.314;2023-08-06T07:50:55;5.35;;;3.50;;
44137;SDS011;29800;55.942;37.314;2023-08-06T07:53:23;4.80;;;3.47;;
44137;SDS011;29800;55.942;37.314;2023-08-06T07:55:53;6.75;;;3.53;;
44137;SDS011;29800;55.942;37.314;2023-08-06T07:58:20;9.82;;;3.20;;
44137;SDS011;29800;55.942;37.314;2023-08-06T08:00:46;8.60;;;3.00;;
44137;SDS011;29800;55.942;37.314;2023-08-06T08:03:14;7.47;;;3.20;;
44137;SDS011;29800;55.942;37.314;2023-08-06T08:05:41;6.07;;;3.03;;
44137;SDS011;29800;55.942;37.314;2023-08-06T08:08:08;5.95;;;3.33;;
44137;SDS011;29800;55.942;37.314;2023-08-06T08:10:35;5.78;;;3.60;;
44137;SDS011;29800;55.942;37.314;2023-08-06T08:13:02;10.15;;;3.70;;
44137;SDS011;29800;55.942;37.314;2023-08-06T08:15:29;6.07;;;3.33;;
44137;SDS011;29800;55.942;37.314;2023-08-06T08:17:56;7.40;;;3.53;;
44137;SDS011;29800;55.942;37.314;2023-08-06T08:20:22;6.32;;;3.15;;
44137;SDS011;29800;55.942;37.314;2023-08-06T08:22:49;8.05;;;4.03;;
44137;SDS011;29800;55.942;37.314;2023-08-06T08:25:16;13.60;;;5.30;;
44137;SDS011;29800;55.942;37.314;2023-08-06T08:27:42;7.47;;;3.30;;
44137;SDS011;29800;55.942;37.314;2023-08-06T08:30:09;6.95;;;4.57;;
44137;SDS011;29800;55.942;37.314;2023-08-06T08:32:35;8.50;;;3.83;;
44137;SDS011;29800;55.942;37.314;2023-08-06T08:35:01;6.85;;;3.22;;
44137;SDS011;29800;55.942;37.314;2023-08-06T08:37:29;9.43;;;3.83;;
44137;SDS011;29800;55.942;37.314;2023-08-06T08:39:55;5.60;;;2.78;;
44137;SDS011;29800;55.942;37.314;2023-08-06T08:42:22;6.63;;;3.35;;
44137;SDS011;29800;55.942;37.314;2023-08-06T08:44:49;9.98;;;4.85;;
44137;SDS011;29800;55.942;37.314;2023-08-06T08:47:15;6.15;;;3.40;;
44137;SDS011;29800;55.942;37.314;2023-08-06T08:49:42;6.50;;;3.42;;
44137;SDS011;29800;55.942;37.314;2023-08-06T08:52:10;6.65;;;3.50;;
44137;SDS011;29800;55.942;37.314;2023-08-06T08:54:38;6.32;;;3.17;;
44137;SDS011;29800;55.942;37.314;2023-08-06T08:57:06;6.07;;;3.13;;
44137;SDS011;29800;55.942;37.314;2023-08-06T08:59:33;7.88;;;3.33;;
44137;SDS011;29800;55.942;37.314;2023-08-06T09:02:02;6.70;;;4.13;;
44137;SDS011;29800;55.942;37.314;2023-08-06T09:04:29;7.38;;;3.92;;
44137;SDS011;29800;55.942;37.314;2023-08-06T09:06:58;7.13;;;3.50;;
44137;SDS011;29800;55.942;37.314;2023-08-06T09:09:26;6.90;;;3.83;;
44137;SDS011;29800;55.942;37.314;2023-08-06T09:12:00;8.07;;;3.75;;
44137;SDS011;29800;55.942;37.314;2023-08-06T09:14:28;5.75;;;3.72;;
44137;SDS011;29800;55.942;37.314;2023-08-06T09:16:54;9.32;;;4.10;;
44137;SDS011;29800;55.942;37.314;2023-08-06T09:19:21;6.40;;;3.83;;
44137;SDS011;29800;55.942;37.314;2023-08-06T09:21:47;6.85;;;4.10;;
44137;SDS011;29800;55.942;37.314;2023-08-06T09:24:17;7.47;;;4.03;;
44137;SDS011;29800;55.942;37.314;2023-08-06T09:26:44;10.90;;;4.20;;
44137;SDS011;29800;55.942;37.314;2023-08-06T09:29:11;9.95;;;4.03;;
44137;SDS011;29800;55.942;37.314;2023-08-06T09:31:41;8.45;;;4.10;;
44137;SDS011;29800;55.942;37.314;2023-08-06T09:36:46;8.10;;;4.22;;
44137;SDS011;29800;55.942;37.314;2023-08-06T09:39:17;5.35;;;3.80;;
44137;SDS011;29800;55.942;37.314;2023-08-06T09:41:46;10.98;;;4.57;;
44137;SDS011;29800;55.942;37.314;2023-08-06T09:44:16;11.48;;;4.45;;
44137;SDS011;29800;55.942;37.314;2023-08-06T09:46:50;7.90;;;4.35;;
44137;SDS011;29800;55.942;37.314;2023-08-06T09:49:19;5.43;;;3.80;;
44137;SDS011;29800;55.942;37.314;2023-08-06T09:51:47;6.68;;;3.53;;
44137;SDS011;29800;55.942;37.314;2023-08-06T09:54:19;7.28;;;4.20;;
44137;SDS011;29800;55.942;37.314;2023-08-06T09:56:45;8.23;;;4.10;;
44137;SDS011;29800;55.942;37.314;2023-08-06T09:59:13;7.20;;;3.92;;
44137;SDS011;29800;55.942;37.314;2023-08-06T10:01:41;11.98;;;4.10;;
44137;SDS011;29800;55.942;37.314;2023-08-06T10:04:07;7.30;;;4.35;;
44137;SDS011;29800;55.942;37.314;2023-08-06T10:06:34;6.95;;;4.30;;
44137;SDS011;29800;55.942;37.314;2023-08-06T10:09:02;8.65;;;4.13;;
44137;SDS011;29800;55.942;37.314;2023-08-06T10:11:29;8.68;;;4.40;;
44137;SDS011;29800;55.942;37.314;2023-08-06T10:16:38;7.28;;;3.90;;
44137;SDS011;29800;55.942;37.314;2023-08-06T10:19:07;6.93;;;4.28;;
44137;SDS011;29800;55.942;37.314;2023-08-06T10:21:37;8.00;;;4.32;;
44137;SDS011;29800;55.942;37.314;2023-08-06T10:24:06;5.57;;;4.53;;
44137;SDS011;29800;55.942;37.314;2023-08-06T10:26:36;9.15;;;4.72;;
44137;SDS011;29800;55.942;37.314;2023-08-06T10:32:08;8.07;;;3.97;;
44137;SDS011;29800;55.942;37.314;2023-08-06T10:37:34;7.18;;;4.38;;
44137;SDS011;29800;55.942;37.314;2023-08-06T10:40:03;7.72;;;4.45;;
44137;SDS011;29800;55.942;37.314;2023-08-06T10:42:33;7.93;;;4.30;;
44137;SDS011;29800;55.942;37.314;2023-08-06T10:45:15;5.90;;;4.38;;
44137;SDS011;29800;55.942;37.314;2023-08-06T10:47:42;9.25;;;4.80;;
44137;SDS011;29800;55.942;37.314;2023-08-06T10:50:13;8.07;;;4.60;;
44137;SDS011;29800;55.942;37.314;2023-08-06T10:52:45;5.85;;;4.10;;
44137;SDS011;29800;55.942;37.314;2023-08-06T10:55:13;10.35;;;4.40;;
44137;SDS011;29800;55.942;37.314;2023-08-06T10:57:40;6.47;;;4.13;;
44137;SDS011;29800;55.942;37.314;2023-08-06T11:00:07;7.85;;;4.53;;
44137;SDS011;29800;55.942;37.314;2023-08-06T11:02:34;7.28;;;5.15;;
44137;SDS011;29800;55.942;37.314;2023-08-06T11:05:10;9.30;;;4.82;;
44137;SDS011;29800;55.942;37.314;2023-08-06T11:07:37;6.15;;;4.50;;
44137;SDS011;29800;55.942;37.314;2023-08-06T11:10:04;6.07;;;4.60;;
44137;SDS011;29800;55.942;37.314;2023-08-06T11:12:33;7.03;;;4.57;;
44137;SDS011;29800;55.942;37.314;2023-08-06T11:15:00;10.07;;;4.00;;
44137;SDS011;29800;55.942;37.314;2023-08-06T11:17:32;9.13;;;4.50;;
44137;SDS011;29800;55.942;37.314;2023-08-06T11:20:03;7.18;;;4.10;;
44137;SDS011;29800;55.942;37.314;2023-08-06T11:22:33;10.63;;;4.13;;
44137;SDS011;29800;55.942;37.314;2023-08-06T11:24:59;6.93;;;4.43;;
44137;SDS011;29800;55.942;37.314;2023-08-06T11:27:30;6.75;;;4.57;;
44137;SDS011;29800;55.942;37.314;2023-08-06T11:29:57;6.68;;;4.55;;
44137;SDS011;29800;55.942;37.314;2023-08-06T11:32:23;6.13;;;4.70;;
44137;SDS011;29800;55.942;37.314;2023-08-06T11:34:50;9.45;;;4.63;;
44137;SDS011;29800;55.942;37.314;2023-08-06T11:37:20;7.75;;;5.03;;
44137;SDS011;29800;55.942;37.314;2023-08-06T11:39:48;7.95;;;4.53;;
44137;SDS011;29800;55.942;37.314;2023-08-06T11:42:15;7.95;;;4.97;;
44137;SDS011;29800;55.942;37.314;2023-08-06T11:44:41;9.73;;;4.43;;
44137;SDS011;29800;55.942;37.314;2023-08-06T11:47:12;8.07;;;4.70;;
44137;SDS011;29800;55.942;37.314;2023-08-06T11:49:44;5.57;;;4.60;;
44137;SDS011;29800;55.942;37.314;2023-08-06T11:55:02;9.00;;;4.82;;
44137;SDS011;29800;55.942;37.314;2023-08-06T11:57:36;7.43;;;5.03;;
44137;SDS011;29800;55.942;37.314;2023-08-06T12:00:05;7.90;;;4.20;;
44137;SDS011;29800;55.942;37.314;2023-08-06T12:02:42;6.18;;;4.47;;
44137;SDS011;29800;55.942;37.314;2023-08-06T12:07:45;5.10;;;4.40;;
44137;SDS011;29800;55.942;37.314;2023-08-06T12:10:13;7.07;;;4.32;;
44137;SDS011;29800;55.942;37.314;2023-08-06T12:12:40;5.82;;;4.55;;
44137;SDS011;29800;55.942;37.314;2023-08-06T12:15:08;7.20;;;4.43;;
44137;SDS011;29800;55.942;37.314;2023-08-06T12:17:35;10.13;;;4.47;;
44137;SDS011;29800;55.942;37.314;2023-08-06T12:20:03;9.07;;;4.57;;
44137;SDS011;29800;55.942;37.314;2023-08-06T12:22:33;10.57;;;4.63;;
44137;SDS011;29800;55.942;37.314;2023-08-06T12:25:09;8.52;;;4.78;;
44137;SDS011;29800;55.942;37.314;2023-08-06T12:27:38;6.45;;;4.75;;
44137;SDS011;29800;55.942;37.314;2023-08-06T12:30:07;9.00;;;4.30;;
44137;SDS011;29800;55.942;37.314;2023-08-06T12:32:35;7.85;;;4.30;;
44137;SDS011;29800;55.942;37.314;2023-08-06T12:35:02;8.82;;;4.28;;
44137;SDS011;29800;55.942;37.314;2023-08-06T12:37:33;7.28;;;4.88;;
44137;SDS011;29800;55.942;37.314;2023-08-06T12:40:00;9.30;;;4.40;;
44137;SDS011;29800;55.942;37.314;2023-08-06T12:42:29;6.97;;;4.35;;
44137;SDS011;29800;55.942;37.314;2023-08-06T12:44:56;8.02;;;4.25;;
44137;SDS011;29800;55.942;37.314;2023-08-06T12:47:22;10.13;;;5.03;;
44137;SDS011;29800;55.942;37.314;2023-08-06T12:49:49;11.50;;;4.45;;
44137;SDS011;29800;55.942;37.314;2023-08-06T12:52:15;10.05;;;5.32;;
44137;SDS011;29800;55.942;37.314;2023-08-06T12:54:42;7.85;;;4.57;;
44137;SDS011;29800;55.942;37.314;2023-08-06T12:57:08;6.95;;;3.78;;
44137;SDS011;29800;55.942;37.314;2023-08-06T12:59:35;7.47;;;4.10;;
44137;SDS011;29800;55.942;37.314;2023-08-06T13:02:05;9.98;;;4.28;;
44137;SDS011;29800;55.942;37.314;2023-08-06T13:04:32;5.15;;;3.85;;
44137;SDS011;29800;55.942;37.314;2023-08-06T13:06:59;7.03;;;4.60;;
44137;SDS011;29800;55.942;37.314;2023-08-06T13:09:26;7.05;;;4.78;;
44137;SDS011;29800;55.942;37.314;2023-08-06T13:11:53;7.88;;;4.93;;
44137;SDS011;29800;55.942;37.314;2023-08-06T13:14:20;5.13;;;4.32;;
44137;SDS011;29800;55.942;37.314;2023-08-06T13:16:46;7.75;;;4.18;;
44137;SDS011;29800;55.942;37.314;2023-08-06T13:19:13;7.38;;;4.72;;
44137;SDS011;29800;55.942;37.314;2023-08-06T13:24:08;8.77;;;4.65;;
44137;SDS011;29800;55.942;37.314;2023-08-06T13:26:35;9.93;;;4.60;;
44137;SDS011;29800;55.942;37.314;2023-08-06T13:29:01;9.00;;;4.90;;
44137;SDS011;29800;55.942;37.314;2023-08-06T13:31:28;8.93;;;4.50;;
44137;SDS011;29800;55.942;37.314;2023-08-06T13:33:55;8.73;;;4.88;;
44137;SDS011;29800;55.942;37.314;2023-08-06T13:36:24;6.40;;;4.28;;
44137;SDS011;29800;55.942;37.314;2023-08-06T13:38:52;6.78;;;4.10;;
44137;SDS011;29800;55.942;37.314;2023-08-06T13:41:20;9.10;;;4.45;;
44137;SDS011;29800;55.942;37.314;2023-08-06T13:43:47;6.53;;;4.15;;
44137;SDS011;29800;55.942;37.314;2023-08-06T13:46:14;8.38;;;3.85;;
44137;SDS011;29800;55.942;37.314;2023-08-06T13:48:44;6.75;;;4.13;;
44137;SDS011;29800;55.942;37.314;2023-08-06T13:51:12;7.57;;;4.22;;
44137;SDS011;29800;55.942;37.314;2023-08-06T13:53:39;7.95;;;3.90;;
44137;SDS011;29800;55.942;37.314;2023-08-06T13:56:07;6.75;;;3.83;;
44137;SDS011;29800;55.942;37.314;2023-08-06T13:58:40;6.45;;;4.40;;
44137;SDS011;29800;55.942;37.314;2023-08-06T14:01:09;8.25;;;4.30;;
44137;SDS011;29800;55.942;37.314;2023-08-06T14:03:37;8.02;;;4.65;;
44137;SDS011;29800;55.942;37.314;2023-08-06T14:06:03;8.38;;;4.07;;
44137;SDS011;29800;55.942;37.314;2023-08-06T14:08:30;7.43;;;3.97;;
44137;SDS011;29800;55.942;37.314;2023-08-06T14:10:56;8.43;;;4.57;;
44137;SDS011;29800;55.942;37.314;2023-08-06T14:13:23;11.35;;;3.78;;
44137;SDS011;29800;55.942;37.314;2023-08-06T14:15:49;10.57;;;4.75;;
44137;SDS011;29800;55.942;37.314;2023-08-06T14:18:16;6.35;;;3.95;;
44137;SDS011;29800;55.942;37.314;2023-08-06T14:20:43;10.30;;;4.40;;
44137;SDS011;29800;55.942;37.314;2023-08-06T14:23:09;11.18;;;3.85;;
44137;SDS011;29800;55.942;37.314;2023-08-06T14:25:36;8.13;;;4.40;;
44137;SDS011;29800;55.942;37.314;2023-08-06T14:28:05;6.50;;;4.10;;
44137;SDS011;29800;55.942;37.314;2023-08-06T14:30:32;12.55;;;4.35;;
44137;SDS011;29800;55.942;37.314;2023-08-06T14:32:59;7.63;;;4.45;;
44137;SDS011;29800;55.942;37.314;2023-08-06T14:35:33;7.13;;;4.22;;
44137;SDS011;29800;55.942;37.314;2023-08-06T14:38:03;9.07;;;4.28;;
44137;SDS011;29800;55.942;37.314;2023-08-06T14:40:31;9.05;;;3.85;;
44137;SDS011;29800;55.942;37.314;2023-08-06T14:43:06;7.82;;;6.35;;
44137;SDS011;29800;55.942;37.314;2023-08-06T14:45:39;9.35;;;5.60;;
44137;SDS011;29800;55.942;37.314;2023-08-06T14:48:10;7.00;;;5.00;;
44137;SDS011;29800;55.942;37.314;2023-08-06T14:50:40;7.75;;;5.10;;
44137;SDS011;29800;55.942;37.314;2023-08-06T14:53:10;8.05;;;5.07;;